createdAt,value
2023-01-17T00:01:25.058Z,1.55
2023-01-17T00:03:51.928Z,1.45
2023-01-17T00:06:18.666Z,1.42
2023-01-17T00:08:45.416Z,1.65
2023-01-17T00:11:12.137Z,3.78
2023-01-17T00:13:38.926Z,1.85
2023-01-17T00:16:05.999Z,1.33
2023-01-17T00:18:32.804Z,1.75
2023-01-17T00:20:59.524Z,3.60
2023-01-17T00:23:26.295Z,2.55
2023-01-17T00:25:53.059Z,0.95
2023-01-17T00:28:19.818Z,0.95
2023-01-17T00:30:46.647Z,1.02
2023-01-17T00:33:13.598Z,1.00
2023-01-17T00:35:40.355Z,0.63
2023-01-17T00:38:10.677Z,0.50
2023-01-17T00:40:38.807Z,0.93
2023-01-17T00:43:05.664Z,1.17
2023-01-17T00:45:35.947Z,2.55
2023-01-17T00:48:02.941Z,1.55
2023-01-17T00:50:31.861Z,1.65
2023-01-17T00:53:01.103Z,0.90
2023-01-17T00:55:27.826Z,0.90
2023-01-17T00:57:54.485Z,1.05
2023-01-17T01:00:21.295Z,0.57
2023-01-17T01:02:48.084Z,0.85
2023-01-17T01:05:15.005Z,1.67
2023-01-17T01:07:41.744Z,1.00
2023-01-17T01:10:09.006Z,1.02
2023-01-17T01:12:35.692Z,1.70
2023-01-17T01:15:02.455Z,1.83
2023-01-17T01:17:29.216Z,1.50
2023-01-17T01:19:55.937Z,0.40
2023-01-17T01:22:22.692Z,1.10
2023-01-17T01:24:49.386Z,1.20
2023-01-17T01:27:16.088Z,2.45
2023-01-17T01:29:43.160Z,0.80
2023-01-17T01:32:09.916Z,1.02
2023-01-17T01:34:36.614Z,1.75
2023-01-17T01:37:03.368Z,2.65
2023-01-17T01:39:30.054Z,1.63
2023-01-17T01:41:56.781Z,1.05
2023-01-17T01:44:48.410Z,1.02
2023-01-17T01:47:21.245Z,2.47
2023-01-17T01:49:48.019Z,0.40
2023-01-17T01:52:14.751Z,1.35
2023-01-17T01:54:55.755Z,1.00
2023-01-17T01:57:24.237Z,1.50
2023-01-17T01:59:59.893Z,1.15
2023-01-17T02:02:27.770Z,1.30
2023-01-17T02:04:54.985Z,1.02
2023-01-17T02:07:26.000Z,1.05
2023-01-17T02:09:53.991Z,0.43
2023-01-17T02:12:21.542Z,0.52
2023-01-17T02:14:51.244Z,0.50
2023-01-17T02:17:39.804Z,0.68
2023-01-17T02:20:42.804Z,1.52
2023-01-17T02:23:29.400Z,0.73
2023-01-17T02:26:05.211Z,2.25
2023-01-17T02:28:44.214Z,1.38
2023-01-17T02:31:18.063Z,0.40
2023-01-17T02:33:53.872Z,0.60
2023-01-17T02:36:22.937Z,0.40
2023-01-17T02:39:08.626Z,1.55
2023-01-17T02:41:40.947Z,1.50
2023-01-17T02:44:11.196Z,0.40
2023-01-17T02:46:48.424Z,0.50
2023-01-17T02:49:16.119Z,1.42
2023-01-17T02:51:42.854Z,1.50
2023-01-17T02:54:36.355Z,1.40
2023-01-17T02:57:25.773Z,1.77
2023-01-17T03:00:04.592Z,0.40
2023-01-17T03:02:58.759Z,0.50
2023-01-17T03:05:37.045Z,0.80
2023-01-17T03:08:03.906Z,0.60
2023-01-17T03:10:32.561Z,0.65
2023-01-17T03:12:59.674Z,1.20
2023-01-17T03:15:26.656Z,0.52
2023-01-17T03:17:54.724Z,1.52
2023-01-17T03:20:24.554Z,0.30
2023-01-17T03:22:51.286Z,0.40
2023-01-17T03:25:18.025Z,0.45
2023-01-17T03:27:44.752Z,0.50
2023-01-17T03:30:11.825Z,1.25
2023-01-17T03:32:38.507Z,0.47
2023-01-17T03:35:05.668Z,1.38
2023-01-17T03:37:32.518Z,0.50
2023-01-17T03:39:59.239Z,0.60
2023-01-17T03:42:25.929Z,1.42
2023-01-17T03:44:52.597Z,0.30
2023-01-17T03:47:19.248Z,1.05
2023-01-17T03:49:45.941Z,0.70
2023-01-17T03:52:12.624Z,0.60
2023-01-17T03:54:39.380Z,2.15
2023-01-17T03:57:06.085Z,0.45
2023-01-17T03:59:32.760Z,0.77
2023-01-17T04:01:59.481Z,0.32
2023-01-17T04:04:26.210Z,0.88
2023-01-17T04:06:52.904Z,0.30
2023-01-17T04:09:19.570Z,1.67
2023-01-17T04:11:46.300Z,0.40
2023-01-17T04:14:13.064Z,1.13
2023-01-17T04:16:39.865Z,0.77
2023-01-17T04:19:06.604Z,0.93
2023-01-17T04:21:33.352Z,0.22
2023-01-17T04:24:00.038Z,1.15
2023-01-17T04:26:26.795Z,1.55
2023-01-17T04:28:53.510Z,0.75
2023-01-17T04:31:20.259Z,0.25
2023-01-17T04:33:47.049Z,0.30
2023-01-17T04:36:13.710Z,1.67
2023-01-17T04:38:40.405Z,0.63
2023-01-17T04:41:07.132Z,1.00
2023-01-17T04:43:33.881Z,1.13
2023-01-17T04:46:01.706Z,2.90
2023-01-17T04:48:29.071Z,1.15
2023-01-17T04:51:05.121Z,0.20
2023-01-17T04:53:32.025Z,0.30
2023-01-17T04:55:58.715Z,0.43
2023-01-17T04:58:25.449Z,0.82
2023-01-17T05:00:52.172Z,1.10
2023-01-17T05:03:19.632Z,0.40
2023-01-17T05:05:47.130Z,0.30
2023-01-17T05:08:14.088Z,2.20
2023-01-17T05:10:40.775Z,0.40
2023-01-17T05:13:07.494Z,1.23
2023-01-17T05:15:34.209Z,0.30
2023-01-17T05:18:00.956Z,1.05
2023-01-17T05:20:27.632Z,0.40
2023-01-17T05:22:57.299Z,1.20
2023-01-17T05:25:29.071Z,1.63
2023-01-17T05:27:56.014Z,0.20
2023-01-17T05:30:22.789Z,0.30
2023-01-17T05:32:50.163Z,1.20
2023-01-17T05:35:17.903Z,2.88
2023-01-17T05:37:44.643Z,0.47
2023-01-17T05:40:12.145Z,0.88
2023-01-17T05:42:38.842Z,1.85
2023-01-17T05:45:06.222Z,0.73
2023-01-17T05:47:32.927Z,1.75
2023-01-17T05:49:59.612Z,1.52
2023-01-17T05:52:26.365Z,1.85
2023-01-17T05:54:53.056Z,1.58
2023-01-17T05:57:19.749Z,0.30
2023-01-17T05:59:46.501Z,0.73
2023-01-17T06:02:13.224Z,0.30
2023-01-17T06:04:39.988Z,1.48
2023-01-17T06:07:06.719Z,0.30
2023-01-17T06:09:33.417Z,0.50
2023-01-17T06:12:00.132Z,0.65
2023-01-17T06:14:26.804Z,1.33
2023-01-17T06:16:53.512Z,0.80
2023-01-17T06:19:20.181Z,1.00
2023-01-17T06:21:46.955Z,0.80
2023-01-17T06:24:13.753Z,0.70
2023-01-17T06:26:40.445Z,1.48
2023-01-17T06:29:07.146Z,1.25
2023-01-17T06:31:33.883Z,0.40
2023-01-17T06:34:02.703Z,0.65
2023-01-17T06:36:29.763Z,1.58
2023-01-17T06:38:56.424Z,0.85
2023-01-17T06:41:23.113Z,0.40
2023-01-17T06:43:49.806Z,1.83
2023-01-17T06:46:16.539Z,2.95
2023-01-17T06:48:43.321Z,1.05
2023-01-17T06:51:10.291Z,0.40
2023-01-17T06:53:37.018Z,1.65
2023-01-17T06:56:03.800Z,0.38
2023-01-17T06:58:30.478Z,0.45
2023-01-17T07:00:57.246Z,0.73
2023-01-17T07:03:25.515Z,0.45
2023-01-17T07:05:52.383Z,1.20
2023-01-17T07:08:19.866Z,0.73
2023-01-17T07:10:46.961Z,1.67
2023-01-17T07:13:13.858Z,1.20
2023-01-17T07:15:40.629Z,0.52
2023-01-17T07:18:07.503Z,2.70
2023-01-17T07:20:34.196Z,1.33
2023-01-17T07:23:00.863Z,0.57
2023-01-17T07:25:27.840Z,1.05
2023-01-17T07:27:54.896Z,1.02
2023-01-17T07:30:21.722Z,0.80
2023-01-17T07:32:52.665Z,1.33
2023-01-17T07:35:19.464Z,1.70
2023-01-17T07:37:49.636Z,1.25
2023-01-17T07:40:17.359Z,0.90
2023-01-17T07:42:44.565Z,1.23
2023-01-17T07:45:12.296Z,2.78
2023-01-17T07:47:38.965Z,1.38
2023-01-17T07:50:06.092Z,0.73
2023-01-17T07:52:32.792Z,1.63
2023-01-17T07:54:59.516Z,1.05
2023-01-17T07:57:26.205Z,0.55
2023-01-17T07:59:52.985Z,0.75
2023-01-17T08:02:21.176Z,1.58
2023-01-17T08:04:47.891Z,0.93
2023-01-17T08:07:14.743Z,1.20
2023-01-17T08:09:42.214Z,3.28
2023-01-17T08:12:09.011Z,1.25
2023-01-17T08:14:35.897Z,2.08
2023-01-17T08:17:06.755Z,1.92
2023-01-17T08:19:36.700Z,0.88
2023-01-17T08:22:03.596Z,0.55
2023-01-17T08:24:30.451Z,0.80
2023-01-17T08:26:57.621Z,0.98
2023-01-17T08:29:28.623Z,0.55
2023-01-17T08:31:55.517Z,1.23
2023-01-17T08:34:22.228Z,1.33
2023-01-17T08:36:48.891Z,1.60
2023-01-17T08:39:15.579Z,0.47
2023-01-17T08:41:42.290Z,2.17
2023-01-17T08:44:09.198Z,2.03
2023-01-17T08:46:38.343Z,0.80
2023-01-17T08:49:05.066Z,2.65
2023-01-17T08:51:31.751Z,2.22
2023-01-17T08:53:58.574Z,2.42
2023-01-17T08:56:25.342Z,0.82
2023-01-17T08:58:52.035Z,1.00
2023-01-17T09:01:18.872Z,2.42
2023-01-17T09:03:45.655Z,1.77
2023-01-17T09:06:14.421Z,0.85
2023-01-17T09:08:41.578Z,1.75
2023-01-17T09:11:10.258Z,1.20
2023-01-17T09:13:36.934Z,0.90
2023-01-17T09:16:03.720Z,0.98
2023-01-17T09:18:30.594Z,1.95
2023-01-17T09:20:57.292Z,0.73
2023-01-17T09:23:24.110Z,0.50
2023-01-17T09:25:54.571Z,1.92
2023-01-17T09:28:21.372Z,0.77
2023-01-17T09:30:48.254Z,1.30
2023-01-17T09:33:15.208Z,2.85
2023-01-17T09:35:41.988Z,2.20
2023-01-17T09:38:08.729Z,0.50
2023-01-17T09:40:36.592Z,0.80
2023-01-17T09:43:05.551Z,2.97
2023-01-17T09:45:33.395Z,2.25
2023-01-17T09:48:00.858Z,0.98
2023-01-17T09:50:31.256Z,1.73
2023-01-17T09:53:02.894Z,1.05
2023-01-17T09:55:34.495Z,2.17
2023-01-17T09:58:42.609Z,1.42
2023-01-17T10:01:15.648Z,1.30
2023-01-17T10:03:46.369Z,1.65
2023-01-17T10:06:31.694Z,1.75
2023-01-17T10:09:19.488Z,2.25
2023-01-17T10:11:53.378Z,1.98
2023-01-17T10:14:41.632Z,3.17
2023-01-17T10:17:11.066Z,1.38
2023-01-17T10:19:46.828Z,2.33
2023-01-17T10:22:26.234Z,3.00
2023-01-17T10:25:08.648Z,3.67
2023-01-17T10:27:37.973Z,1.80
2023-01-17T10:30:13.749Z,2.88
2023-01-17T10:32:42.398Z,2.75
2023-01-17T10:35:16.475Z,1.75
2023-01-17T10:37:43.787Z,2.90
2023-01-17T10:40:18.430Z,2.10
2023-01-17T10:42:55.185Z,2.63
2023-01-17T10:45:24.253Z,2.97
2023-01-17T10:47:58.075Z,2.15
2023-01-17T10:50:24.815Z,1.42
2023-01-17T10:53:02.943Z,1.63
2023-01-17T10:55:38.658Z,2.05
2023-01-17T10:58:05.986Z,2.42
2023-01-17T11:00:41.971Z,2.15
2023-01-17T11:03:08.800Z,1.08
2023-01-17T11:05:35.557Z,2.10
2023-01-17T11:08:04.397Z,1.73
2023-01-17T11:10:36.980Z,2.33
2023-01-17T11:13:18.190Z,2.50
2023-01-17T11:15:47.403Z,3.42
2023-01-17T11:18:20.762Z,2.97
2023-01-17T11:20:47.434Z,2.75
2023-01-17T11:23:16.874Z,4.32
2023-01-17T11:25:57.050Z,1.48
2023-01-17T11:28:31.475Z,2.40
2023-01-17T11:31:00.166Z,2.67
2023-01-17T11:33:35.842Z,3.45
2023-01-17T11:36:02.530Z,3.20
2023-01-17T11:38:29.223Z,2.85
2023-01-17T11:40:55.897Z,3.38
2023-01-17T11:43:24.307Z,2.88
2023-01-17T11:46:13.594Z,2.55
2023-01-17T11:48:40.751Z,4.57
2023-01-17T11:51:28.705Z,2.08
2023-01-17T11:54:07.343Z,3.95
2023-01-17T11:56:36.628Z,3.40
2023-01-17T11:59:21.727Z,2.00
2023-01-17T12:01:54.892Z,3.25
2023-01-17T12:04:29.352Z,2.10
2023-01-17T12:06:59.155Z,2.17
2023-01-17T12:09:32.442Z,2.00
2023-01-17T12:12:36.127Z,2.33
2023-01-17T12:18:16.310Z,1.50
2023-01-17T12:21:18.421Z,2.25
2023-01-17T12:23:58.206Z,1.73
2023-01-17T12:26:51.491Z,1.60
2023-01-17T12:29:34.210Z,3.38
2023-01-17T12:32:28.772Z,1.10
2023-01-17T12:35:01.793Z,1.90
2023-01-17T12:40:20.564Z,2.65
2023-01-17T12:42:51.364Z,1.63
2023-01-17T12:45:27.923Z,1.98
2023-01-17T12:47:59.819Z,3.45
2023-01-17T12:50:36.398Z,2.83
2023-01-17T12:53:15.354Z,2.90
2023-01-17T12:55:50.411Z,1.38
2023-01-17T12:58:27.326Z,2.08
2023-01-17T13:01:07.247Z,1.60
2023-01-17T13:03:41.337Z,1.20
2023-01-17T13:06:08.110Z,1.52
2023-01-17T13:08:43.900Z,1.00
2023-01-17T13:11:16.696Z,1.23
2023-01-17T13:13:43.395Z,2.75
2023-01-17T13:16:18.853Z,2.05
2023-01-17T13:18:46.822Z,2.45
2023-01-17T13:21:32.716Z,1.23
2023-01-17T13:23:59.442Z,2.13
2023-01-17T13:26:36.200Z,1.65
2023-01-17T13:29:16.511Z,1.20
2023-01-17T13:31:57.001Z,1.23
2023-01-17T13:34:51.256Z,1.63
2023-01-17T13:37:59.051Z,2.55
2023-01-17T13:40:47.415Z,1.95
2023-01-17T13:43:18.658Z,2.30
2023-01-17T13:45:58.114Z,2.90
2023-01-17T13:48:25.619Z,2.63
2023-01-17T13:51:05.748Z,2.85
2023-01-17T13:53:35.177Z,3.22
2023-01-17T13:56:05.657Z,3.70
2023-01-17T13:58:56.791Z,3.35
2023-01-17T14:01:23.630Z,3.92
2023-01-17T14:03:50.427Z,3.40
2023-01-17T14:06:41.836Z,4.03
2023-01-17T14:09:08.797Z,4.25
2023-01-17T14:11:36.003Z,4.40
2023-01-17T14:14:35.519Z,4.43
2023-01-17T14:17:20.414Z,4.32
2023-01-17T14:20:06.790Z,4.05
2023-01-17T14:22:35.668Z,3.40
2023-01-17T14:25:20.218Z,3.00
2023-01-17T14:27:51.679Z,3.53
2023-01-17T14:30:24.341Z,4.32
2023-01-17T14:33:19.265Z,3.50
2023-01-17T14:35:55.072Z,4.30
2023-01-17T14:38:22.904Z,4.75
2023-01-17T14:41:00.004Z,4.00
2023-01-17T14:43:28.171Z,3.90
2023-01-17T14:46:02.658Z,4.00
2023-01-17T14:48:29.644Z,3.65
2023-01-17T14:50:56.952Z,4.38
2023-01-17T14:53:24.568Z,4.10
2023-01-17T14:55:52.265Z,3.72
2023-01-17T14:58:29.105Z,4.65
2023-01-17T15:01:01.036Z,4.50
2023-01-17T15:03:28.994Z,4.17
2023-01-17T15:05:56.332Z,5.28
2023-01-17T15:08:25.317Z,4.28
2023-01-17T15:11:00.818Z,5.53
2023-01-17T15:13:44.228Z,6.47
2023-01-17T15:16:18.932Z,7.78
2023-01-17T15:18:45.628Z,4.47
2023-01-17T15:21:14.771Z,5.65
2023-01-17T15:23:44.479Z,6.40
2023-01-17T15:26:13.403Z,9.00
2023-01-17T15:28:40.108Z,13.02
2023-01-17T15:31:16.872Z,10.75
2023-01-17T15:33:47.683Z,13.73
2023-01-17T15:36:14.434Z,12.82
2023-01-17T15:38:45.582Z,9.38
2023-01-17T15:41:16.079Z,10.07
2023-01-17T15:43:43.276Z,9.27
2023-01-17T15:46:38.905Z,9.13
2023-01-17T15:49:16.069Z,8.85
2023-01-17T15:51:51.094Z,11.25
2023-01-17T15:54:53.822Z,9.57
2023-01-17T15:57:29.774Z,13.77
2023-01-17T16:00:06.377Z,10.70
2023-01-17T16:02:36.993Z,8.75
2023-01-17T16:05:24.079Z,11.00
2023-01-17T16:07:58.609Z,8.25
2023-01-17T16:10:27.415Z,8.68
2023-01-17T16:12:54.327Z,8.20
2023-01-17T16:15:21.047Z,8.40
2023-01-17T16:17:49.780Z,8.68
2023-01-17T16:20:20.110Z,9.18
2023-01-17T16:22:47.497Z,10.93
2023-01-17T16:25:16.127Z,7.90
2023-01-17T16:27:43.073Z,10.10
2023-01-17T16:30:11.159Z,9.73
2023-01-17T16:32:38.309Z,7.90
2023-01-17T16:35:07.568Z,8.45
2023-01-17T16:37:34.281Z,11.05
2023-01-17T16:40:01.089Z,7.70
2023-01-17T16:42:28.613Z,6.82
2023-01-17T16:44:55.438Z,7.00
2023-01-17T16:47:22.223Z,8.43
2023-01-17T16:49:52.005Z,8.10
2023-01-17T16:52:18.703Z,9.20
2023-01-17T16:54:45.411Z,9.13
2023-01-17T16:57:12.162Z,7.88
2023-01-17T16:59:50.160Z,9.85
2023-01-17T17:02:17.371Z,6.32
2023-01-17T17:04:44.115Z,6.90
2023-01-17T17:07:10.888Z,7.45
2023-01-17T17:09:37.647Z,7.80
2023-01-17T17:12:04.759Z,9.10
2023-01-17T17:14:31.519Z,8.50
2023-01-17T17:17:01.872Z,8.70
2023-01-17T17:19:28.617Z,8.93
2023-01-17T17:21:58.161Z,7.90
2023-01-17T17:24:25.047Z,7.63
2023-01-17T17:26:51.769Z,7.80
2023-01-17T17:29:18.563Z,9.95
2023-01-17T17:31:45.289Z,8.95
2023-01-17T17:34:12.819Z,9.52
2023-01-17T17:36:39.560Z,7.35
2023-01-17T17:39:07.063Z,6.00
2023-01-17T17:41:34.498Z,7.57
2023-01-17T17:44:01.823Z,7.68
2023-01-17T17:46:28.837Z,6.43
2023-01-17T17:48:56.470Z,7.75
2023-01-17T17:51:30.793Z,6.95
2023-01-17T17:54:05.561Z,8.63
2023-01-17T17:56:32.439Z,7.75
2023-01-17T17:58:59.651Z,8.07
2023-01-17T18:01:26.527Z,12.88
2023-01-17T18:03:54.716Z,7.60
2023-01-17T18:06:21.683Z,7.38
2023-01-17T18:08:48.386Z,7.97
2023-01-17T18:11:19.749Z,10.43
2023-01-17T18:13:47.094Z,6.82
2023-01-17T18:16:14.802Z,6.88
2023-01-17T18:18:45.596Z,6.28
2023-01-17T18:21:15.011Z,8.77
2023-01-17T18:23:43.307Z,8.43
2023-01-17T18:26:23.241Z,9.48
2023-01-17T18:28:50.848Z,10.43
2023-01-17T18:31:17.643Z,7.97
2023-01-17T18:33:44.384Z,10.00
2023-01-17T18:36:11.732Z,7.47
2023-01-17T18:38:39.592Z,6.00
2023-01-17T18:41:07.231Z,10.00
2023-01-17T18:43:34.035Z,7.78
2023-01-17T18:46:00.929Z,8.68
2023-01-17T18:48:27.682Z,9.10
2023-01-17T18:51:01.479Z,8.05
2023-01-17T18:53:29.330Z,7.32
2023-01-17T18:55:58.483Z,9.07
2023-01-17T18:58:25.372Z,7.55
2023-01-17T19:00:52.450Z,7.90
2023-01-17T19:03:25.925Z,9.68
2023-01-17T19:05:52.700Z,6.18
2023-01-17T19:08:19.413Z,6.90
2023-01-17T19:10:46.154Z,7.45
2023-01-17T19:13:12.844Z,8.65
2023-01-17T19:15:39.580Z,8.57
2023-01-17T19:18:06.343Z,6.15
2023-01-17T19:20:34.901Z,6.25
2023-01-17T19:23:01.651Z,8.30
2023-01-17T19:25:28.480Z,6.47
2023-01-17T19:27:55.457Z,7.55
2023-01-17T19:30:22.576Z,6.32
2023-01-17T19:32:49.656Z,6.90
2023-01-17T19:35:17.058Z,7.65
2023-01-17T19:37:47.755Z,6.47
2023-01-17T19:40:15.316Z,10.88
2023-01-17T19:42:42.175Z,7.00
2023-01-17T19:45:10.170Z,8.40
2023-01-17T19:47:37.208Z,6.70
2023-01-17T19:50:04.852Z,8.88
2023-01-17T19:52:31.630Z,7.95
2023-01-17T19:54:58.539Z,8.55
2023-01-17T19:57:25.231Z,6.28
2023-01-17T19:59:51.972Z,8.77
2023-01-17T20:02:18.818Z,9.80
2023-01-17T20:04:45.599Z,8.70
2023-01-17T20:07:12.508Z,6.70
2023-01-17T20:09:39.212Z,7.13
2023-01-17T20:12:06.221Z,8.70
2023-01-17T20:14:32.934Z,9.77
2023-01-17T20:16:59.619Z,8.60
2023-01-17T20:19:26.381Z,7.95
2023-01-17T20:21:53.080Z,7.18
2023-01-17T20:24:19.891Z,7.75
2023-01-17T20:26:46.594Z,9.02
2023-01-17T20:29:14.599Z,8.25
2023-01-17T20:31:42.173Z,7.00
2023-01-17T20:34:10.089Z,7.07
2023-01-17T20:36:36.905Z,6.63
2023-01-17T20:39:04.783Z,6.78
2023-01-17T20:41:33.116Z,6.93
2023-01-17T20:44:00.713Z,7.70
2023-01-17T20:46:32.044Z,12.70
2023-01-17T20:48:58.811Z,7.57
2023-01-17T20:51:26.426Z,6.75
2023-01-17T20:53:55.024Z,7.65
2023-01-17T20:56:21.881Z,8.15
2023-01-17T20:58:49.587Z,8.48
2023-01-17T21:01:18.368Z,9.02
2023-01-17T21:03:45.391Z,7.10
2023-01-17T21:06:12.578Z,6.35
2023-01-17T21:08:40.433Z,7.93
2023-01-17T21:11:09.624Z,9.30
2023-01-17T21:13:36.463Z,8.13
2023-01-17T21:16:03.162Z,8.20
2023-01-17T21:18:29.894Z,7.70
2023-01-17T21:20:57.421Z,8.95
2023-01-17T21:23:24.111Z,7.68
2023-01-17T21:25:59.757Z,6.00
2023-01-17T21:28:28.303Z,6.10
2023-01-17T21:30:55.135Z,6.85
2023-01-17T21:33:22.589Z,6.25
2023-01-17T21:35:49.368Z,7.40
2023-01-17T21:38:16.100Z,7.82
2023-01-17T21:40:43.072Z,7.10
2023-01-17T21:43:09.955Z,7.22
2023-01-17T21:45:40.345Z,5.57
2023-01-17T21:48:07.764Z,6.22
2023-01-17T21:50:34.497Z,6.32
2023-01-17T21:53:01.175Z,6.88
2023-01-17T21:55:27.951Z,6.07
2023-01-17T21:57:54.873Z,5.57
2023-01-17T22:00:21.722Z,4.88
2023-01-17T22:02:48.577Z,4.80
2023-01-17T22:05:15.450Z,7.88
2023-01-17T22:07:42.247Z,5.32
2023-01-17T22:10:09.778Z,5.05
2023-01-17T22:12:36.440Z,4.22
2023-01-17T22:15:03.239Z,5.75
2023-01-17T22:17:29.946Z,5.93
2023-01-17T22:19:56.641Z,5.88
2023-01-17T22:22:23.417Z,6.20
2023-01-17T22:24:50.126Z,4.93
2023-01-17T22:27:17.075Z,4.20
2023-01-17T22:29:43.886Z,4.15
2023-01-17T22:32:10.578Z,4.13
2023-01-17T22:34:37.326Z,10.38
2023-01-17T22:37:04.036Z,4.63
2023-01-17T22:39:30.821Z,3.95
2023-01-17T22:41:58.591Z,4.20
2023-01-17T22:44:25.511Z,4.05
2023-01-17T22:46:52.201Z,2.72
2023-01-17T22:49:18.913Z,3.40
2023-01-17T22:51:45.601Z,3.38
2023-01-17T22:54:12.344Z,3.30
2023-01-17T22:56:40.224Z,4.35
2023-01-17T22:59:07.031Z,3.78
2023-01-17T23:01:33.714Z,3.72
2023-01-17T23:04:01.964Z,3.00
2023-01-17T23:06:36.308Z,3.08
2023-01-17T23:09:08.785Z,2.92
2023-01-17T23:11:36.345Z,2.90
2023-01-17T23:14:03.148Z,3.40
2023-01-17T23:16:29.816Z,2.90
2023-01-17T23:18:56.509Z,2.60
2023-01-17T23:21:23.265Z,2.65
2023-01-17T23:23:49.962Z,3.70
2023-01-17T23:26:16.655Z,2.15
2023-01-17T23:28:43.471Z,2.28
2023-01-17T23:31:10.274Z,2.80
2023-01-17T23:33:37.776Z,2.13
2023-01-17T23:36:04.671Z,3.15
2023-01-17T23:38:31.481Z,2.33
2023-01-17T23:41:05.159Z,2.22
2023-01-17T23:43:32.242Z,3.08
2023-01-17T23:45:59.013Z,2.15
2023-01-17T23:48:25.732Z,4.72
2023-01-17T23:50:55.977Z,1.17
2023-01-17T23:53:22.681Z,7.20
2023-01-17T23:55:57.391Z,2.13
2023-01-17T23:58:25.793Z,1.52
